EZY53ZM EGKK-EDDM
Flight info
| Callsign | EZY53ZM |
|---|---|
| Flight time | N/A |
| Altitude | 37000 |
| Route | MIMFO Y312 DVR UL9 KONAN UL607 KOK DCT MATUG DCT MOVUM T109 HAREM/N0376F230 T104 ROKIL ROKIL1B |
| Aircraft | A320/M-SDE3FGHIRWY/LB1 |
Departure
| Time | 2026-04-14 16:52 |
|---|---|
| Airport | London Gatwick Airport (EGKK) |
Arrival
| Time | N/A |
|---|---|
| Airport | Munich Airport (EDDM) |
| Time | Latitude | Longitude | Altitude | Speed | Heading |
|---|---|---|---|---|---|
| 2026-04-14 15:51 | 51.15817 | -0.17940 | 216 ft | 0 kts | 77° |
| 2026-04-14 16:18 | 51.15817 | -0.17941 | 204 ft | 2 kts | 77° |
| 2026-04-14 16:19 | 51.15811 | -0.17980 | 206 ft | 4 kts | 77° |
| 2026-04-14 16:19 | 51.15806 | -0.18021 | 213 ft | 4 kts | 78° |
| 2026-04-14 16:19 | 51.15806 | -0.18057 | 213 ft | 4 kts | 135° |
| 2026-04-14 16:19 | 51.15822 | -0.18071 | 216 ft | 4 kts | 167° |
| 2026-04-14 16:20 | 51.15835 | -0.18076 | 215 ft | 0 kts | 167° |
| 2026-04-14 16:23 | 51.15834 | -0.18075 | 209 ft | 1 kts | 167° |
| 2026-04-14 16:23 | 51.15793 | -0.18061 | 207 ft | 9 kts | 167° |
| 2026-04-14 16:24 | 51.15724 | -0.18037 | 206 ft | 11 kts | 167° |
| 2026-04-14 16:24 | 51.15699 | -0.17937 | 204 ft | 11 kts | 78° |
| 2026-04-14 16:24 | 51.15717 | -0.17829 | 204 ft | 10 kts | 75° |
| 2026-04-14 16:24 | 51.15732 | -0.17733 | 204 ft | 8 kts | 77° |
| 2026-04-14 16:25 | 51.15743 | -0.17651 | 207 ft | 7 kts | 77° |
| 2026-04-14 16:25 | 51.15752 | -0.17588 | 213 ft | 0 kts | 78° |
| 2026-04-14 16:25 | 51.15753 | -0.17581 | 211 ft | 4 kts | 78° |
| 2026-04-14 16:25 | 51.15710 | -0.17505 | 209 ft | 16 kts | 160° |
| 2026-04-14 16:26 | 51.15600 | -0.17456 | 207 ft | 17 kts | 168° |
| 2026-04-14 16:26 | 51.15503 | -0.17423 | 213 ft | 6 kts | 168° |
| 2026-04-14 16:26 | 51.15498 | -0.17421 | 211 ft | 0 kts | 168° |
| 2026-04-14 16:27 | 51.15479 | -0.17415 | 204 ft | 4 kts | 168° |
| 2026-04-14 16:27 | 51.15446 | -0.17404 | 213 ft | 6 kts | 167° |
| 2026-04-14 16:27 | 51.15433 | -0.17399 | 207 ft | 0 kts | 167° |
| 2026-04-14 16:33 | 51.15420 | -0.17394 | 208 ft | 3 kts | 167° |
| 2026-04-14 16:34 | 51.15386 | -0.17382 | 207 ft | 6 kts | 167° |
| 2026-04-14 16:34 | 51.15325 | -0.17360 | 204 ft | 12 kts | 167° |
| 2026-04-14 16:34 | 51.15245 | -0.17289 | 206 ft | 16 kts | 111° |
| 2026-04-14 16:34 | 51.15262 | -0.17117 | 214 ft | 9 kts | 78° |
| 2026-04-14 16:35 | 51.15264 | -0.17104 | 211 ft | 0 kts | 78° |
| 2026-04-14 16:38 | 51.15264 | -0.17097 | 211 ft | 3 kts | 78° |
| 2026-04-14 16:38 | 51.15272 | -0.17037 | 204 ft | 8 kts | 78° |
| 2026-04-14 16:38 | 51.15275 | -0.17019 | 207 ft | 0 kts | 78° |
| 2026-04-14 16:39 | 51.15277 | -0.17002 | 210 ft | 0 kts | 77° |
| 2026-04-14 16:39 | 51.15278 | -0.16995 | 208 ft | 0 kts | 77° |
| 2026-04-14 16:42 | 51.15279 | -0.16992 | 207 ft | 2 kts | 77° |
| 2026-04-14 16:42 | 51.15284 | -0.16951 | 204 ft | 0 kts | 77° |
| 2026-04-14 16:43 | 51.15287 | -0.16934 | 204 ft | 0 kts | 77° |
| 2026-04-14 16:49 | 51.15290 | -0.16906 | 209 ft | 5 kts | 83° |
| 2026-04-14 16:50 | 51.15274 | -0.16830 | 209 ft | 10 kts | 139° |
| 2026-04-14 16:50 | 51.15243 | -0.16811 | 215 ft | 0 kts | 166° |
| 2026-04-14 16:50 | 51.15173 | -0.16789 | 209 ft | 20 kts | 175° |
| 2026-04-14 16:51 | 51.15108 | -0.16898 | 206 ft | 0 kts | 258° |
| 2026-04-14 16:51 | 51.15105 | -0.16918 | 208 ft | 9 kts | 258° |
| 2026-04-14 16:52 | 51.15040 | -0.17375 | 213 ft | 79 kts | 258° |
| 2026-04-14 16:52 | 51.14869 | -0.18575 | 211 ft | 138 kts | 257° |
| 2026-04-14 16:52 | 51.14655 | -0.20192 | 636 ft | 151 kts | 256° |
| 2026-04-14 16:52 | 51.14454 | -0.21830 | 1378 ft | 151 kts | 251° |
| 2026-04-14 16:53 | 51.14230 | -0.23484 | 1939 ft | 158 kts | 250° |
| 2026-04-14 16:53 | 51.13979 | -0.25284 | 2331 ft | 177 kts | 250° |
| 2026-04-14 16:53 | 51.13715 | -0.27338 | 2678 ft | 204 kts | 259° |
| 2026-04-14 16:53 | 51.13997 | -0.29668 | 3350 ft | 227 kts | 292° |
| 2026-04-14 16:54 | 51.15076 | -0.31602 | 3875 ft | 244 kts | 326° |
| 2026-04-14 16:54 | 51.16720 | -0.32261 | 3984 ft | 251 kts | 3° |
| 2026-04-14 16:54 | 51.18334 | -0.31272 | 4007 ft | 253 kts | 42° |
| 2026-04-14 16:54 | 51.19292 | -0.29028 | 4008 ft | 244 kts | 78° |
| 2026-04-14 16:55 | 51.19636 | -0.26387 | 4008 ft | 244 kts | 84° |
| 2026-04-14 16:55 | 51.19948 | -0.23719 | 4010 ft | 245 kts | 84° |
| 2026-04-14 16:55 | 51.20254 | -0.21018 | 4020 ft | 260 kts | 85° |
| 2026-04-14 16:55 | 51.20525 | -0.18071 | 4012 ft | 273 kts | 86° |
| 2026-04-14 16:56 | 51.20785 | -0.15035 | 4625 ft | 278 kts | 86° |
| 2026-04-14 16:56 | 51.21042 | -0.11966 | 5622 ft | 281 kts | 86° |
| 2026-04-14 16:56 | 51.21302 | -0.08853 | 6557 ft | 286 kts | 86° |
| 2026-04-14 16:56 | 51.21561 | -0.05687 | 7421 ft | 290 kts | 86° |
| 2026-04-14 16:57 | 51.21813 | -0.02483 | 8320 ft | 293 kts | 86° |
| 2026-04-14 16:57 | 51.22058 | 0.00768 | 9140 ft | 296 kts | 86° |
| 2026-04-14 16:57 | 51.22296 | 0.04043 | 10008 ft | 299 kts | 86° |
| 2026-04-14 16:57 | 51.22530 | 0.07435 | 10432 ft | 319 kts | 85° |
| 2026-04-14 16:58 | 51.22768 | 0.11077 | 10703 ft | 342 kts | 86° |
| 2026-04-14 16:58 | 51.23005 | 0.14910 | 11287 ft | 351 kts | 86° |
| 2026-04-14 16:58 | 51.23219 | 0.18819 | 11985 ft | 357 kts | 86° |
| 2026-04-14 16:58 | 51.23396 | 0.22800 | 12658 ft | 364 kts | 89° |
| 2026-04-14 16:59 | 51.23313 | 0.26859 | 13366 ft | 368 kts | 95° |
| 2026-04-14 16:59 | 51.23062 | 0.30948 | 14016 ft | 373 kts | 96° |
| 2026-04-14 16:59 | 51.22789 | 0.35094 | 14670 ft | 377 kts | 96° |
| 2026-04-14 16:59 | 51.22516 | 0.39264 | 15337 ft | 380 kts | 96° |
| 2026-04-14 17:00 | 51.22242 | 0.43470 | 16034 ft | 382 kts | 96° |
| 2026-04-14 17:00 | 51.21968 | 0.47744 | 16462 ft | 392 kts | 96° |
| 2026-04-14 17:00 | 51.21694 | 0.52128 | 16834 ft | 403 kts | 96° |
| 2026-04-14 17:00 | 51.21410 | 0.56653 | 17104 ft | 416 kts | 96° |
| 2026-04-14 17:01 | 51.21118 | 0.61317 | 17397 ft | 428 kts | 96° |
| 2026-04-14 17:01 | 51.20815 | 0.66095 | 17689 ft | 438 kts | 96° |
| 2026-04-14 17:01 | 51.20499 | 0.70979 | 17949 ft | 447 kts | 96° |
| 2026-04-14 17:01 | 51.20179 | 0.75928 | 18392 ft | 446 kts | 96° |
| 2026-04-14 17:02 | 51.19855 | 0.80740 | 19615 ft | 427 kts | 96° |
| 2026-04-14 17:02 | 51.19517 | 0.85301 | 20728 ft | 415 kts | 96° |
| 2026-04-14 17:02 | 51.19153 | 0.89858 | 21399 ft | 416 kts | 96° |
| 2026-04-14 17:02 | 51.18771 | 0.94444 | 21968 ft | 419 kts | 96° |
| 2026-04-14 17:03 | 51.18360 | 0.99072 | 22451 ft | 424 kts | 96° |
| 2026-04-14 17:03 | 51.17917 | 1.03739 | 22918 ft | 428 kts | 96° |
| 2026-04-14 17:03 | 51.17455 | 1.08454 | 23444 ft | 433 kts | 96° |
| 2026-04-14 17:03 | 51.16975 | 1.13222 | 23880 ft | 437 kts | 96° |
| 2026-04-14 17:04 | 51.16482 | 1.18020 | 24275 ft | 441 kts | 96° |
| 2026-04-14 17:04 | 51.15980 | 1.22846 | 24676 ft | 443 kts | 96° |
| 2026-04-14 17:04 | 51.15466 | 1.27702 | 25070 ft | 446 kts | 96° |
| 2026-04-14 17:04 | 51.14942 | 1.32594 | 25462 ft | 449 kts | 97° |
| 2026-04-14 17:05 | 51.14408 | 1.37504 | 25846 ft | 451 kts | 97° |
| 2026-04-14 17:05 | 51.13864 | 1.42448 | 26253 ft | 454 kts | 96° |
| 2026-04-14 17:05 | 51.13307 | 1.47399 | 26669 ft | 456 kts | 97° |
| 2026-04-14 17:05 | 51.12730 | 1.52377 | 27058 ft | 458 kts | 97° |
| 2026-04-14 17:06 | 51.12130 | 1.57363 | 27425 ft | 461 kts | 97° |
| 2026-04-14 17:06 | 51.11506 | 1.62382 | 27788 ft | 463 kts | 97° |
| 2026-04-14 17:06 | 51.10866 | 1.67416 | 28143 ft | 466 kts | 97° |
| 2026-04-14 17:06 | 51.10213 | 1.72495 | 28502 ft | 469 kts | 97° |
| 2026-04-14 17:07 | 51.09558 | 1.77589 | 28849 ft | 472 kts | 97° |
| 2026-04-14 17:07 | 51.08901 | 1.82718 | 29194 ft | 474 kts | 97° |
| 2026-04-14 17:07 | 51.08245 | 1.87877 | 29528 ft | 477 kts | 97° |
| 2026-04-14 17:07 | 51.07589 | 1.93057 | 29875 ft | 479 kts | 96° |
| 2026-04-14 17:08 | 51.06929 | 1.98263 | 30186 ft | 482 kts | 96° |
| 2026-04-14 17:08 | 51.06261 | 2.03499 | 30450 ft | 484 kts | 97° |
| 2026-04-14 17:08 | 51.05583 | 2.08758 | 30703 ft | 487 kts | 97° |
| 2026-04-14 17:08 | 51.04905 | 2.13968 | 30956 ft | 489 kts | 97° |
| 2026-04-14 17:09 | 51.04214 | 2.19268 | 31213 ft | 491 kts | 97° |
| 2026-04-14 17:09 | 51.03509 | 2.24665 | 31473 ft | 493 kts | 97° |
| 2026-04-14 17:09 | 51.02821 | 2.29937 | 31789 ft | 493 kts | 97° |
| 2026-04-14 17:09 | 51.02121 | 2.35276 | 32154 ft | 493 kts | 97° |
| 2026-04-14 17:10 | 51.01421 | 2.40589 | 32559 ft | 492 kts | 96° |
| 2026-04-14 17:10 | 51.00719 | 2.45896 | 32949 ft | 491 kts | 96° |
| 2026-04-14 17:10 | 51.00014 | 2.51191 | 33323 ft | 490 kts | 96° |
| 2026-04-14 17:10 | 50.99309 | 2.56477 | 33689 ft | 489 kts | 96° |
| 2026-04-14 17:11 | 50.98603 | 2.61751 | 34053 ft | 488 kts | 96° |
| 2026-04-14 17:11 | 50.97896 | 2.67019 | 34383 ft | 488 kts | 96° |
| 2026-04-14 17:11 | 50.97187 | 2.72275 | 34675 ft | 488 kts | 96° |
| 2026-04-14 17:11 | 50.96477 | 2.77537 | 34952 ft | 488 kts | 96° |
| 2026-04-14 17:12 | 50.95761 | 2.82814 | 35254 ft | 488 kts | 96° |
| 2026-04-14 17:12 | 50.95049 | 2.88059 | 35559 ft | 487 kts | 96° |
| 2026-04-14 17:12 | 50.94335 | 2.93313 | 35845 ft | 486 kts | 96° |
| 2026-04-14 17:12 | 50.93618 | 2.98546 | 36092 ft | 486 kts | 96° |
| 2026-04-14 17:13 | 50.92893 | 3.03787 | 36324 ft | 487 kts | 96° |
| 2026-04-14 17:13 | 50.92165 | 3.09026 | 36550 ft | 487 kts | 96° |
| 2026-04-14 17:13 | 50.91434 | 3.14281 | 36769 ft | 488 kts | 96° |
| 2026-04-14 17:13 | 50.90705 | 3.19525 | 36997 ft | 488 kts | 96° |
| 2026-04-14 17:14 | 50.89972 | 3.24783 | 37155 ft | 489 kts | 96° |
| 2026-04-14 17:14 | 50.89238 | 3.30041 | 37210 ft | 488 kts | 96° |
| 2026-04-14 17:14 | 50.87765 | 3.40490 | 37185 ft | 486 kts | 96° |
| 2026-04-14 17:15 | 50.86282 | 3.50911 | 37184 ft | 485 kts | 96° |
| 2026-04-14 17:15 | 50.84797 | 3.61330 | 37200 ft | 485 kts | 96° |
| 2026-04-14 17:16 | 50.83311 | 3.71667 | 37198 ft | 485 kts | 96° |
| 2026-04-14 17:16 | 50.81804 | 3.82069 | 37222 ft | 485 kts | 97° |
| 2026-04-14 17:17 | 50.80297 | 3.92451 | 37220 ft | 484 kts | 96° |
| 2026-04-14 17:17 | 50.78783 | 4.02794 | 37229 ft | 482 kts | 97° |
| 2026-04-14 17:18 | 50.77258 | 4.13102 | 37230 ft | 482 kts | 97° |
| 2026-04-14 17:18 | 50.75721 | 4.23401 | 37228 ft | 481 kts | 97° |
| 2026-04-14 17:19 | 50.74175 | 4.33773 | 37219 ft | 490 kts | 97° |
| 2026-04-14 17:19 | 50.72596 | 4.44284 | 37219 ft | 493 kts | 97° |
| 2026-04-14 17:20 | 50.70990 | 4.54816 | 37218 ft | 493 kts | 97° |
| 2026-04-14 17:20 | 50.69380 | 4.65336 | 37218 ft | 493 kts | 97° |
| 2026-04-14 17:21 | 50.67781 | 4.75767 | 37218 ft | 491 kts | 97° |
| 2026-04-14 17:21 | 50.66161 | 4.86224 | 37230 ft | 491 kts | 97° |
| 2026-04-14 17:22 | 50.64533 | 4.96657 | 37232 ft | 490 kts | 97° |
| 2026-04-14 17:22 | 50.62896 | 5.07089 | 37231 ft | 490 kts | 97° |
| 2026-04-14 17:23 | 50.61256 | 5.17517 | 37251 ft | 490 kts | 98° |
| 2026-04-14 17:23 | 50.59609 | 5.27899 | 37245 ft | 488 kts | 98° |
| 2026-04-14 17:24 | 50.57952 | 5.38250 | 37240 ft | 487 kts | 98° |
| 2026-04-14 17:24 | 50.56294 | 5.48574 | 37235 ft | 487 kts | 98° |
| 2026-04-14 17:25 | 50.54629 | 5.58893 | 37245 ft | 487 kts | 99° |
| 2026-04-14 17:25 | 50.52948 | 5.69197 | 37239 ft | 486 kts | 99° |
| 2026-04-14 17:26 | 50.51267 | 5.79475 | 37231 ft | 485 kts | 99° |
| 2026-04-14 17:26 | 50.49581 | 5.89732 | 37216 ft | 485 kts | 99° |
| 2026-04-14 17:27 | 50.47884 | 5.99964 | 37224 ft | 485 kts | 99° |
| 2026-04-14 17:27 | 50.46178 | 6.10206 | 37245 ft | 484 kts | 101° |
| 2026-04-14 17:28 | 50.44464 | 6.20416 | 37226 ft | 483 kts | 101° |
| 2026-04-14 17:28 | 50.42756 | 6.30543 | 37217 ft | 483 kts | 101° |
| 2026-04-14 17:29 | 50.40986 | 6.40704 | 37211 ft | 483 kts | 102° |
| 2026-04-14 17:29 | 50.38951 | 6.50757 | 37222 ft | 484 kts | 105° |
| 2026-04-14 17:30 | 50.37153 | 6.59059 | 37212 ft | 484 kts | 105° |
| 2026-04-14 17:30 | 50.35012 | 6.69044 | 37220 ft | 484 kts | 105° |
| 2026-04-14 17:31 | 50.32921 | 6.79058 | 37228 ft | 484 kts | 104° |
| 2026-04-14 17:31 | 50.30843 | 6.89065 | 37231 ft | 484 kts | 104° |
| 2026-04-14 17:32 | 50.28749 | 6.99052 | 37250 ft | 483 kts | 105° |
| 2026-04-14 17:32 | 50.26639 | 7.09019 | 37244 ft | 483 kts | 105° |
| 2026-04-14 17:33 | 50.24514 | 7.18966 | 37239 ft | 483 kts | 105° |
| 2026-04-14 17:34 | 50.21302 | 7.33863 | 37221 ft | 482 kts | 105° |
| 2026-04-14 17:34 | 50.19155 | 7.43793 | 37234 ft | 483 kts | 105° |
| 2026-04-14 17:35 | 50.17006 | 7.53707 | 37215 ft | 482 kts | 105° |
| 2026-04-14 17:35 | 50.14853 | 7.63612 | 37211 ft | 482 kts | 105° |
| 2026-04-14 17:36 | 50.12689 | 7.73512 | 37213 ft | 482 kts | 105° |
| 2026-04-14 17:36 | 50.10511 | 7.83397 | 37229 ft | 483 kts | 106° |